sensor_id;sensor_type;location;lat;lon;timestamp;pressure;altitude;pressure_sealevel;temperature;humidity
68859;BME280;55864;49.238;8.092;2023-05-25T00:01:02;99879.38;;;14.32;48.75
68859;BME280;55864;49.238;8.092;2023-05-25T00:03:03;99869.66;;;14.32;48.29
68859;BME280;55864;49.238;8.092;2023-05-25T00:05:07;99866.19;;;14.32;49.09
68859;BME280;55864;49.238;8.092;2023-05-25T00:07:08;99872.59;;;14.29;48.51
68859;BME280;55864;49.238;8.092;2023-05-25T00:09:08;99879.84;;;14.27;48.65
68859;BME280;55864;49.238;8.092;2023-05-25T00:11:09;99879.84;;;14.27;49.08
68859;BME280;55864;49.238;8.092;2023-05-25T00:13:09;99880.81;;;14.26;48.52
68859;BME280;55864;49.238;8.092;2023-05-25T00:15:10;99885.41;;;14.24;48.31
68859;BME280;55864;49.238;8.092;2023-05-25T00:17:11;99872.38;;;14.23;48.61
68859;BME280;55864;49.238;8.092;2023-05-25T00:19:11;99875.97;;;14.22;48.84
68859;BME280;55864;49.238;8.092;2023-05-25T00:21:13;99872.38;;;14.23;48.82
68859;BME280;55864;49.238;8.092;2023-05-25T00:23:14;99875.97;;;14.22;48.71
68859;BME280;55864;49.238;8.092;2023-05-25T00:25:14;99875.78;;;14.15;48.06
68859;BME280;55864;49.238;8.092;2023-05-25T00:27:15;99873.97;;;14.15;48.52
68859;BME280;55864;49.238;8.092;2023-05-25T00:29:15;99866.06;;;14.15;48.17
68859;BME280;55864;49.238;8.092;2023-05-25T00:31:16;99866.34;;;14.12;48.25
68859;BME280;55864;49.238;8.092;2023-05-25T00:33:16;99858.59;;;14.11;48.52
68859;BME280;55864;49.238;8.092;2023-05-25T00:35:17;99863.03;;;14.10;48.91
68859;BME280;55864;49.238;8.092;2023-05-25T00:37:19;99870.28;;;14.08;48.47
68859;BME280;55864;49.238;8.092;2023-05-25T00:39:20;99864.16;;;14.08;48.39
68859;BME280;55864;49.238;8.092;2023-05-25T00:41:21;99868.63;;;14.07;48.08
68859;BME280;55864;49.238;8.092;2023-05-25T00:43:21;99871.13;;;14.09;48.29
68859;BME280;55864;49.238;8.092;2023-05-25T00:45:22;99867.78;;;14.07;48.48
68859;BME280;55864;49.238;8.092;2023-05-25T00:47:23;99863.50;;;14.06;48.46
68859;BME280;55864;49.238;8.092;2023-05-25T00:49:24;99866.28;;;14.04;48.34
68859;BME280;55864;49.238;8.092;2023-05-25T00:51:25;99870.59;;;14.05;48.69
68859;BME280;55864;49.238;8.092;2023-05-25T00:53:27;99865.31;;;14.05;48.40
68859;BME280;55864;49.238;8.092;2023-05-25T00:55:31;99870.88;;;14.02;48.70
68859;BME280;55864;49.238;8.092;2023-05-25T00:57:36;99861.78;;;13.97;48.66
68859;BME280;55864;49.238;8.092;2023-05-25T00:59:43;99874.16;;;13.96;49.25
68859;BME280;55864;49.238;8.092;2023-05-25T01:01:46;99876.13;;;13.94;48.68
68859;BME280;55864;49.238;8.092;2023-05-25T01:03:48;99875.91;;;13.88;48.77
68859;BME280;55864;49.238;8.092;2023-05-25T01:05:50;99881.34;;;13.86;49.33
68859;BME280;55864;49.238;8.092;2023-05-25T01:07:54;99878.03;;;13.84;49.32
68859;BME280;55864;49.238;8.092;2023-05-25T01:10:00;99879.16;;;13.82;49.88
68859;BME280;55864;49.238;8.092;2023-05-25T01:12:01;99878.63;;;13.78;49.57
68859;BME280;55864;49.238;8.092;2023-05-25T01:14:02;99880.91;;;13.73;49.74
68859;BME280;55864;49.238;8.092;2023-05-25T01:16:04;99873.94;;;13.72;49.69
68859;BME280;55864;49.238;8.092;2023-05-25T01:18:05;99876.75;;;13.71;50.17
68859;BME280;55864;49.238;8.092;2023-05-25T01:20:06;99874.94;;;13.71;50.01
68859;BME280;55864;49.238;8.092;2023-05-25T01:22:12;99873.81;;;13.74;50.29
68859;BME280;55864;49.238;8.092;2023-05-25T01:24:19;99875.63;;;13.73;50.30
68859;BME280;55864;49.238;8.092;2023-05-25T01:26:23;99874.41;;;13.68;49.62
68859;BME280;55864;49.238;8.092;2023-05-25T01:28:30;99879.53;;;13.69;50.34
68859;BME280;55864;49.238;8.092;2023-05-25T01:30:33;99878.50;;;13.62;49.29
68859;BME280;55864;49.238;8.092;2023-05-25T01:32:36;99876.81;;;13.61;50.53
68859;BME280;55864;49.238;8.092;2023-05-25T01:34:39;99875.69;;;13.64;50.48
68859;BME280;55864;49.238;8.092;2023-05-25T01:36:40;99877.81;;;13.60;50.45
68859;BME280;55864;49.238;8.092;2023-05-25T01:38:42;99885.41;;;13.63;50.34
68859;BME280;55864;49.238;8.092;2023-05-25T01:40:43;99885.41;;;13.63;50.86
68859;BME280;55864;49.238;8.092;2023-05-25T01:42:44;99885.75;;;13.60;50.45
68859;BME280;55864;49.238;8.092;2023-05-25T01:44:44;99886.69;;;13.59;50.76
68859;BME280;55864;49.238;8.092;2023-05-25T01:46:45;99883.25;;;13.59;50.51
68859;BME280;55864;49.238;8.092;2023-05-25T01:48:51;99890.34;;;13.58;50.54
68859;BME280;55864;49.238;8.092;2023-05-25T01:50:53;99890.50;;;13.57;50.84
68859;BME280;55864;49.238;8.092;2023-05-25T01:52:58;99889.94;;;13.53;51.08
68859;BME280;55864;49.238;8.092;2023-05-25T01:55:04;99886.66;;;13.51;51.79
68859;BME280;55864;49.238;8.092;2023-05-25T01:57:06;99884.97;;;13.50;51.03
68859;BME280;55864;49.238;8.092;2023-05-25T01:59:07;99877.50;;;13.46;51.04
68859;BME280;55864;49.238;8.092;2023-05-25T02:01:08;99888.03;;;13.46;51.31
68859;BME280;55864;49.238;8.092;2023-05-25T02:03:09;99877.66;;;13.44;51.90
68859;BME280;55864;49.238;8.092;2023-05-25T02:05:10;99880.97;;;13.46;51.61
68859;BME280;55864;49.238;8.092;2023-05-25T02:07:10;99873.22;;;13.45;51.42
68859;BME280;55864;49.238;8.092;2023-05-25T02:09:11;99875.00;;;13.44;51.36
68859;BME280;55864;49.238;8.092;2023-05-25T02:11:12;99872.09;;;13.47;51.44
68859;BME280;55864;49.238;8.092;2023-05-25T02:13:13;99875.69;;;13.46;51.51
68859;BME280;55864;49.238;8.092;2023-05-25T02:15:14;99876.69;;;13.45;52.27
68859;BME280;55864;49.238;8.092;2023-05-25T02:17:14;99869.03;;;13.42;51.65
68859;BME280;55864;49.238;8.092;2023-05-25T02:19:14;99870.19;;;13.40;52.24
68859;BME280;55864;49.238;8.092;2023-05-25T02:21:15;99865.03;;;13.38;53.01
68859;BME280;55864;49.238;8.092;2023-05-25T02:23:15;99868.16;;;13.34;52.55
68859;BME280;55864;49.238;8.092;2023-05-25T02:25:15;99867.31;;;13.33;52.51
68859;BME280;55864;49.238;8.092;2023-05-25T02:27:17;99871.63;;;13.34;52.81
68859;BME280;55864;49.238;8.092;2023-05-25T02:29:18;99863.16;;;13.31;52.93
68859;BME280;55864;49.238;8.092;2023-05-25T02:31:18;99868.75;;;13.28;52.92
68859;BME280;55864;49.238;8.092;2023-05-25T02:33:20;99869.72;;;13.27;52.96
68859;BME280;55864;49.238;8.092;2023-05-25T02:35:20;99858.50;;;13.25;53.50
68859;BME280;55864;49.238;8.092;2023-05-25T02:37:21;99860.97;;;13.26;53.55
68859;BME280;55864;49.238;8.092;2023-05-25T02:39:21;99868.50;;;13.21;53.28
68859;BME280;55864;49.238;8.092;2023-05-25T02:41:21;99871.97;;;13.21;53.49
68859;BME280;55864;49.238;8.092;2023-05-25T02:43:23;99869.78;;;13.17;53.46
68859;BME280;55864;49.238;8.092;2023-05-25T02:45:23;99880.88;;;13.20;53.63
68859;BME280;55864;49.238;8.092;2023-05-25T02:47:24;99866.00;;;13.19;53.67
68859;BME280;55864;49.238;8.092;2023-05-25T02:49:24;99875.19;;;13.15;53.76
68859;BME280;55864;49.238;8.092;2023-05-25T02:51:24;99870.91;;;13.14;54.23
68859;BME280;55864;49.238;8.092;2023-05-25T02:53:25;99869.38;;;13.12;54.49
68859;BME280;55864;49.238;8.092;2023-05-25T02:55:26;99860.50;;;13.13;54.23
68859;BME280;55864;49.238;8.092;2023-05-25T02:57:27;99870.38;;;13.11;54.84
68859;BME280;55864;49.238;8.092;2023-05-25T02:59:29;99866.38;;;13.07;54.75
68859;BME280;55864;49.238;8.092;2023-05-25T03:01:30;99869.00;;;13.07;54.45
68859;BME280;55864;49.238;8.092;2023-05-25T03:03:31;99869.16;;;13.05;54.48
68859;BME280;55864;49.238;8.092;2023-05-25T03:05:31;99873.59;;;13.05;54.48
68859;BME280;55864;49.238;8.092;2023-05-25T03:07:31;99859.72;;;13.03;54.41
68859;BME280;55864;49.238;8.092;2023-05-25T03:09:32;99869.41;;;13.02;54.41
68859;BME280;55864;49.238;8.092;2023-05-25T03:11:33;99874.69;;;13.02;54.63
68859;BME280;55864;49.238;8.092;2023-05-25T03:13:36;99877.47;;;13.01;54.77
68859;BME280;55864;49.238;8.092;2023-05-25T03:15:37;99870.56;;;13.00;54.95
68859;BME280;55864;49.238;8.092;2023-05-25T03:17:38;99868.88;;;12.99;55.23
68859;BME280;55864;49.238;8.092;2023-05-25T03:19:38;99875.16;;;12.98;55.07
68859;BME280;55864;49.238;8.092;2023-05-25T03:21:39;99874.47;;;12.96;55.13
68859;BME280;55864;49.238;8.092;2023-05-25T03:23:39;99871.81;;;12.96;55.15
68859;BME280;55864;49.238;8.092;2023-05-25T03:25:42;99884.03;;;12.97;55.31
68859;BME280;55864;49.238;8.092;2023-05-25T03:27:42;99882.53;;;12.94;55.13
68859;BME280;55864;49.238;8.092;2023-05-25T03:29:42;99884.59;;;12.91;55.36
68859;BME280;55864;49.238;8.092;2023-05-25T03:31:45;99884.59;;;12.91;55.19
68859;BME280;55864;49.238;8.092;2023-05-25T03:33:45;99889.75;;;12.92;55.18
68859;BME280;55864;49.238;8.092;2023-05-25T03:35:45;99888.75;;;12.93;54.77
68859;BME280;55864;49.238;8.092;2023-05-25T03:37:46;99894.19;;;12.92;55.08
68859;BME280;55864;49.238;8.092;2023-05-25T03:39:46;99895.16;;;12.91;54.95
68859;BME280;55864;49.238;8.092;2023-05-25T03:41:47;99904.75;;;12.92;55.14
68859;BME280;55864;49.238;8.092;2023-05-25T03:43:47;99902.53;;;12.87;54.42
68859;BME280;55864;49.238;8.092;2023-05-25T03:45:48;99908.63;;;12.88;55.32
68859;BME280;55864;49.238;8.092;2023-05-25T03:47:51;99900.72;;;12.88;55.21
68859;BME280;55864;49.238;8.092;2023-05-25T03:49:52;99905.16;;;12.87;54.68
68859;BME280;55864;49.238;8.092;2023-05-25T03:51:52;99903.94;;;12.82;55.22
68859;BME280;55864;49.238;8.092;2023-05-25T03:53:52;99906.56;;;12.82;55.35
68859;BME280;55864;49.238;8.092;2023-05-25T03:55:53;99906.03;;;12.78;55.17
68859;BME280;55864;49.238;8.092;2023-05-25T03:57:53;99904.25;;;12.79;55.30
68859;BME280;55864;49.238;8.092;2023-05-25T03:59:54;99910.63;;;12.76;55.04
68859;BME280;55864;49.238;8.092;2023-05-25T04:01:54;99915.91;;;12.76;55.23
68859;BME280;55864;49.238;8.092;2023-05-25T04:03:56;99910.78;;;12.75;55.42
68859;BME280;55864;49.238;8.092;2023-05-25T04:05:57;99911.72;;;12.74;55.35
68859;BME280;55864;49.238;8.092;2023-05-25T04:07:58;99915.91;;;12.76;55.47
68859;BME280;55864;49.238;8.092;2023-05-25T04:09:58;99915.91;;;12.76;54.91
68859;BME280;55864;49.238;8.092;2023-05-25T04:11:58;99916.06;;;12.75;55.55
68859;BME280;55864;49.238;8.092;2023-05-25T04:13:59;99915.22;;;12.74;54.79
68859;BME280;55864;49.238;8.092;2023-05-25T04:16:03;99917.69;;;12.76;54.89
68859;BME280;55864;49.238;8.092;2023-05-25T04:18:05;99919.22;;;12.78;54.51
68859;BME280;55864;49.238;8.092;2023-05-25T04:20:08;99925.88;;;12.82;54.56
68859;BME280;55864;49.238;8.092;2023-05-25T04:22:08;99927.81;;;12.80;54.49
68859;BME280;55864;49.238;8.092;2023-05-25T04:24:08;99927.81;;;12.80;54.73
68859;BME280;55864;49.238;8.092;2023-05-25T04:26:09;99926.97;;;12.80;54.60
68859;BME280;55864;49.238;8.092;2023-05-25T04:28:10;99927.97;;;12.79;54.74
68859;BME280;55864;49.238;8.092;2023-05-25T04:30:28;99930.88;;;12.76;54.60
68859;BME280;55864;49.238;8.092;2023-05-25T04:32:59;99927.28;;;12.77;55.18
68859;BME280;55864;49.238;8.092;2023-05-25T04:35:08;99929.47;;;12.81;55.19
68859;BME280;55864;49.238;8.092;2023-05-25T04:37:15;99928.94;;;12.78;54.88
68859;BME280;55864;49.238;8.092;2023-05-25T04:39:16;99932.81;;;12.74;54.86
68859;BME280;55864;49.238;8.092;2023-05-25T04:41:21;99925.06;;;12.72;54.89
68859;BME280;55864;49.238;8.092;2023-05-25T04:43:25;99920.47;;;12.74;55.25
68859;BME280;55864;49.238;8.092;2023-05-25T04:45:26;99930.06;;;12.75;55.34
68859;BME280;55864;49.238;8.092;2023-05-25T04:47:26;99927.97;;;12.79;55.18
68859;BME280;55864;49.238;8.092;2023-05-25T04:49:28;99927.13;;;12.78;55.07
68859;BME280;55864;49.238;8.092;2023-05-25T04:51:29;99929.34;;;12.83;55.27
68859;BME280;55864;49.238;8.092;2023-05-25T04:53:30;99934.63;;;12.83;55.06
68859;BME280;55864;49.238;8.092;2023-05-25T04:55:30;99931.16;;;12.82;54.80
68859;BME280;55864;49.238;8.092;2023-05-25T04:57:32;99931.97;;;12.83;54.29
68859;BME280;55864;49.238;8.092;2023-05-25T04:59:32;99932.09;;;12.81;54.61
68859;BME280;55864;49.238;8.092;2023-05-25T05:01:33;99935.19;;;12.77;55.11
68859;BME280;55864;49.238;8.092;2023-05-25T05:03:36;99936.25;;;12.84;55.14
68859;BME280;55864;49.238;8.092;2023-05-25T05:05:37;99944.19;;;12.84;55.15
68859;BME280;55864;49.238;8.092;2023-05-25T05:07:43;99945.00;;;12.84;54.69
68859;BME280;55864;49.238;8.092;2023-05-25T05:09:43;99944.72;;;12.87;54.99
68859;BME280;55864;49.238;8.092;2023-05-25T05:11:44;99939.28;;;12.89;55.20
68859;BME280;55864;49.238;8.092;2023-05-25T05:13:44;99946.25;;;12.90;55.23
68859;BME280;55864;49.238;8.092;2023-05-25T05:15:44;99951.91;;;12.95;55.22
68859;BME280;55864;49.238;8.092;2023-05-25T05:17:45;99946.63;;;12.95;55.05
68859;BME280;55864;49.238;8.092;2023-05-25T05:19:47;99945.66;;;12.96;55.44
68859;BME280;55864;49.238;8.092;2023-05-25T05:21:47;99947.16;;;12.98;54.87
68859;BME280;55864;49.238;8.092;2023-05-25T05:23:51;99943.56;;;12.99;55.19
68859;BME280;55864;49.238;8.092;2023-05-25T05:25:51;99960.91;;;13.02;55.23
68859;BME280;55864;49.238;8.092;2023-05-25T05:27:52;99958.53;;;12.99;54.32
68859;BME280;55864;49.238;8.092;2023-05-25T05:29:58;99958.69;;;12.97;54.65
68859;BME280;55864;49.238;8.092;2023-05-25T05:31:59;99965.78;;;12.97;55.03
68859;BME280;55864;49.238;8.092;2023-05-25T05:33:59;99964.66;;;12.99;55.01
68859;BME280;55864;49.238;8.092;2023-05-25T05:36:00;99970.09;;;12.98;55.38
68859;BME280;55864;49.238;8.092;2023-05-25T05:38:00;99972.03;;;12.96;54.83
68859;BME280;55864;49.238;8.092;2023-05-25T05:40:02;99977.16;;;12.97;54.72
68859;BME280;55864;49.238;8.092;2023-05-25T05:42:03;99967.56;;;12.96;54.09
68859;BME280;55864;49.238;8.092;2023-05-25T05:44:03;99975.34;;;12.98;54.83
68859;BME280;55864;49.238;8.092;2023-05-25T05:46:03;99978.69;;;13.00;54.37
68859;BME280;55864;49.238;8.092;2023-05-25T05:48:04;99977.16;;;12.97;54.29
68859;BME280;55864;49.238;8.092;2023-05-25T05:50:05;99979.66;;;12.99;54.99
68859;BME280;55864;49.238;8.092;2023-05-25T05:52:08;99977.69;;;13.01;54.59
68859;BME280;55864;49.238;8.092;2023-05-25T05:54:08;99979.09;;;13.05;54.53
68859;BME280;55864;49.238;8.092;2023-05-25T05:56:16;99978.81;;;13.08;54.78
68859;BME280;55864;49.238;8.092;2023-05-25T05:58:17;99984.59;;;13.11;54.60
68859;BME280;55864;49.238;8.092;2023-05-25T06:00:18;99981.69;;;13.14;54.84
68859;BME280;55864;49.238;8.092;2023-05-25T06:02:19;99990.47;;;13.15;54.60
68859;BME280;55864;49.238;8.092;2023-05-25T06:04:19;99990.69;;;13.21;54.65
68859;BME280;55864;49.238;8.092;2023-05-25T06:06:20;99994.00;;;13.23;54.52
68859;BME280;55864;49.238;8.092;2023-05-25T06:08:20;99994.53;;;13.27;54.70
68859;BME280;55864;49.238;8.092;2023-05-25T06:10:21;100000.34;;;13.31;54.15
68859;BME280;55864;49.238;8.092;2023-05-25T06:12:23;99994.81;;;13.34;54.70
68859;BME280;55864;49.238;8.092;2023-05-25T06:14:23;100000.63;;;13.37;54.61
68859;BME280;55864;49.238;8.092;2023-05-25T06:16:24;99996.72;;;13.41;54.70
68859;BME280;55864;49.238;8.092;2023-05-25T06:18:24;99995.72;;;13.42;54.43
68859;BME280;55864;49.238;8.092;2023-05-25T06:20:25;99995.56;;;13.44;54.68
68859;BME280;55864;49.238;8.092;2023-05-25T06:22:25;99998.09;;;13.45;54.82
68859;BME280;55864;49.238;8.092;2023-05-25T06:24:26;99995.28;;;13.47;54.61
68859;BME280;55864;49.238;8.092;2023-05-25T06:26:26;100002.78;;;13.51;54.89
68859;BME280;55864;49.238;8.092;2023-05-25T06:28:28;100001.78;;;13.52;54.60
68859;BME280;55864;49.238;8.092;2023-05-25T06:30:28;100009.13;;;13.58;55.25
68859;BME280;55864;49.238;8.092;2023-05-25T06:32:28;100002.56;;;13.62;54.84
68859;BME280;55864;49.238;8.092;2023-05-25T06:34:29;100010.50;;;13.62;54.52
68859;BME280;55864;49.238;8.092;2023-05-25T06:36:29;100005.75;;;13.66;55.20
68859;BME280;55864;49.238;8.092;2023-05-25T06:38:29;100001.69;;;13.71;54.57
68859;BME280;55864;49.238;8.092;2023-05-25T06:40:30;100006.16;;;14.06;54.03
68859;BME280;55864;49.238;8.092;2023-05-25T06:42:30;100008.09;;;14.57;53.31
68859;BME280;55864;49.238;8.092;2023-05-25T06:44:32;100007.03;;;14.93;51.74
68859;BME280;55864;49.238;8.092;2023-05-25T06:46:35;100006.94;;;15.02;51.61
68859;BME280;55864;49.238;8.092;2023-05-25T06:48:37;100012.69;;;14.98;52.09
68859;BME280;55864;49.238;8.092;2023-05-25T06:50:38;100011.94;;;14.88;52.38
68859;BME280;55864;49.238;8.092;2023-05-25T06:52:38;100011.25;;;14.78;52.68
68859;BME280;55864;49.238;8.092;2023-05-25T06:54:38;100019.41;;;14.67;52.89
68859;BME280;55864;49.238;8.092;2023-05-25T06:56:39;100012.72;;;14.55;53.54
68859;BME280;55864;49.238;8.092;2023-05-25T06:58:39;100025.19;;;14.45;53.77
68859;BME280;55864;49.238;8.092;2023-05-25T07:00:41;100020.97;;;14.34;54.29
68859;BME280;55864;49.238;8.092;2023-05-25T07:02:41;100020.34;;;14.23;54.24
68859;BME280;55864;49.238;8.092;2023-05-25T07:04:41;100020.59;;;14.11;54.53
68859;BME280;55864;49.238;8.092;2023-05-25T07:06:42;100025.47;;;14.06;55.67
68859;BME280;55864;49.238;8.092;2023-05-25T07:08:42;100031.34;;;14.00;55.42
68859;BME280;55864;49.238;8.092;2023-05-25T07:10:42;100026.53;;;13.96;55.77
68859;BME280;55864;49.238;8.092;2023-05-25T07:12:43;100026.38;;;13.97;55.87
68859;BME280;55864;49.238;8.092;2023-05-25T07:14:43;100015.81;;;13.97;56.07
68859;BME280;55864;49.238;8.092;2023-05-25T07:16:45;100015.81;;;13.97;56.51
68859;BME280;55864;49.238;8.092;2023-05-25T07:18:45;100009.84;;;13.95;56.23
68859;BME280;55864;49.238;8.092;2023-05-25T07:20:45;100015.81;;;13.97;56.80
68859;BME280;55864;49.238;8.092;2023-05-25T07:22:46;100015.50;;;14.00;56.92
68859;BME280;55864;49.238;8.092;2023-05-25T07:24:46;100007.28;;;14.03;57.00
68859;BME280;55864;49.238;8.092;2023-05-25T07:26:47;100006.44;;;14.03;56.68
68859;BME280;55864;49.238;8.092;2023-05-25T07:28:47;100010.78;;;14.04;56.88
68859;BME280;55864;49.238;8.092;2023-05-25T07:30:47;100011.72;;;14.03;56.64
68859;BME280;55864;49.238;8.092;2023-05-25T07:32:49;100019.66;;;14.03;56.47
68859;BME280;55864;49.238;8.092;2023-05-25T07:34:49;100014.09;;;14.06;56.36
68859;BME280;55864;49.238;8.092;2023-05-25T07:36:49;100016.56;;;14.07;56.50
68859;BME280;55864;49.238;8.092;2023-05-25T07:38:50;100004.72;;;14.11;56.28
68859;BME280;55864;49.238;8.092;2023-05-25T07:40:50;100013.19;;;14.15;56.40
68859;BME280;55864;49.238;8.092;2023-05-25T07:42:50;100016.34;;;14.18;56.36
68859;BME280;55864;49.238;8.092;2023-05-25T07:44:51;100017.03;;;14.21;56.42
68859;BME280;55864;49.238;8.092;2023-05-25T07:46:51;100023.81;;;14.23;56.65
68859;BME280;55864;49.238;8.092;2023-05-25T07:48:53;100021.72;;;14.27;56.25
68859;BME280;55864;49.238;8.092;2023-05-25T07:50:53;100023.91;;;14.31;55.80
68859;BME280;55864;49.238;8.092;2023-05-25T07:52:53;100025.94;;;14.37;55.54
68859;BME280;55864;49.238;8.092;2023-05-25T07:54:54;100033.13;;;14.45;55.10
68859;BME280;55864;49.238;8.092;2023-05-25T07:56:54;100024.41;;;14.52;55.27
68859;BME280;55864;49.238;8.092;2023-05-25T07:58:54;100028.94;;;14.60;55.46
68859;BME280;55864;49.238;8.092;2023-05-25T08:00:55;100024.69;;;14.67;55.13
68859;BME280;55864;49.238;8.092;2023-05-25T08:02:55;100028.41;;;14.74;54.83
68859;BME280;55864;49.238;8.092;2023-05-25T08:04:57;100029.28;;;14.82;55.16
68859;BME280;55864;49.238;8.092;2023-05-25T08:06:57;100024.19;;;14.89;54.39
68859;BME280;55864;49.238;8.092;2023-05-25T08:08:57;100030.84;;;14.93;54.61
68859;BME280;55864;49.238;8.092;2023-05-25T08:10:58;100034.69;;;14.98;54.63
68859;BME280;55864;49.238;8.092;2023-05-25T08:12:58;100031.56;;;15.03;54.28
68859;BME280;55864;49.238;8.092;2023-05-25T08:14:58;100024.78;;;15.08;53.88
68859;BME280;55864;49.238;8.092;2023-05-25T08:16:59;100023.03;;;15.17;54.10
68859;BME280;55864;49.238;8.092;2023-05-25T08:18:59;100018.59;;;15.26;53.66
68859;BME280;55864;49.238;8.092;2023-05-25T08:21:02;100014.19;;;15.34;53.93
68859;BME280;55864;49.238;8.092;2023-05-25T08:23:02;100019.59;;;15.58;53.75
68859;BME280;55864;49.238;8.092;2023-05-25T08:25:03;100027.84;;;15.97;52.32
68859;BME280;55864;49.238;8.092;2023-05-25T08:27:03;100022.75;;;16.20;51.51
68859;BME280;55864;49.238;8.092;2023-05-25T08:29:04;100025.72;;;16.25;51.90
68859;BME280;55864;49.238;8.092;2023-05-25T08:31:04;100023.06;;;16.25;51.72
68859;BME280;55864;49.238;8.092;2023-05-25T08:33:05;100013.63;;;16.22;51.66
68859;BME280;55864;49.238;8.092;2023-05-25T08:35:05;100014.78;;;16.20;51.18
68859;BME280;55864;49.238;8.092;2023-05-25T08:37:07;100023.06;;;16.17;51.60
68859;BME280;55864;49.238;8.092;2023-05-25T08:39:07;100018.59;;;16.17;51.68
68859;BME280;55864;49.238;8.092;2023-05-25T08:41:07;100023.06;;;16.17;51.77
68859;BME280;55864;49.238;8.092;2023-05-25T08:43:08;100016.13;;;16.16;51.58
68859;BME280;55864;49.238;8.092;2023-05-25T08:45:08;100025.22;;;16.21;52.13
68859;BME280;55864;49.238;8.092;2023-05-25T08:47:09;100018.78;;;16.24;51.59
68859;BME280;55864;49.238;8.092;2023-05-25T08:49:11;100020.41;;;16.25;51.63
68859;BME280;55864;49.238;8.092;2023-05-25T08:51:12;100027.91;;;16.29;51.02
68859;BME280;55864;49.238;8.092;2023-05-25T08:53:13;100035.84;;;16.37;51.05
68859;BME280;55864;49.238;8.092;2023-05-25T08:55:15;100022.59;;;16.45;50.53
68859;BME280;55864;49.238;8.092;2023-05-25T08:57:19;100037.38;;;16.48;50.69
68859;BME280;55864;49.238;8.092;2023-05-25T08:59:24;100032.56;;;16.51;51.20
68859;BME280;55864;49.238;8.092;2023-05-25T09:01:25;100032.41;;;16.53;50.91
68859;BME280;55864;49.238;8.092;2023-05-25T09:03:27;100032.09;;;16.56;50.51
68859;BME280;55864;49.238;8.092;2023-05-25T09:05:28;100034.03;;;16.62;49.95
68859;BME280;55864;49.238;8.092;2023-05-25T09:07:29;100033.72;;;16.65;49.64
68859;BME280;55864;49.238;8.092;2023-05-25T09:09:31;100024.44;;;16.69;49.14
68859;BME280;55864;49.238;8.092;2023-05-25T09:11:31;100030.56;;;16.77;49.97
68859;BME280;55864;49.238;8.092;2023-05-25T09:13:32;100023.44;;;16.86;49.87
68859;BME280;55864;49.238;8.092;2023-05-25T09:15:33;100029.53;;;16.94;50.17
68859;BME280;55864;49.238;8.092;2023-05-25T09:17:34;100032.84;;;17.05;49.30
68859;BME280;55864;49.238;8.092;2023-05-25T09:19:34;100034.00;;;17.10;49.48
68859;BME280;55864;49.238;8.092;2023-05-25T09:21:34;100032.97;;;17.19;49.16
68859;BME280;55864;49.238;8.092;2023-05-25T09:23:35;100040.91;;;17.27;48.88
68859;BME280;55864;49.238;8.092;2023-05-25T09:25:37;100035.06;;;17.32;48.89
68859;BME280;55864;49.238;8.092;2023-05-25T09:27:39;100041.50;;;17.53;49.23
68859;BME280;55864;49.238;8.092;2023-05-25T09:29:40;100041.88;;;17.81;48.21
68859;BME280;55864;49.238;8.092;2023-05-25T09:31:40;100036.31;;;17.99;48.24
68859;BME280;55864;49.238;8.092;2023-05-25T09:33:40;100038.63;;;18.02;47.89
68859;BME280;55864;49.238;8.092;2023-05-25T09:35:42;100039.75;;;18.07;47.71
68859;BME280;55864;49.238;8.092;2023-05-25T09:37:42;100048.06;;;18.04;47.36
68859;BME280;55864;49.238;8.092;2023-05-25T09:39:43;100049.88;;;18.04;47.45
68859;BME280;55864;49.238;8.092;2023-05-25T09:41:45;100043.28;;;18.00;47.13
68859;BME280;55864;49.238;8.092;2023-05-25T09:43:45;100046.75;;;18.00;47.47
68859;BME280;55864;49.238;8.092;2023-05-25T09:45:46;100043.94;;;18.02;46.99
68859;BME280;55864;49.238;8.092;2023-05-25T09:47:46;100047.22;;;18.04;48.02
68859;BME280;55864;49.238;8.092;2023-05-25T09:49:46;100047.56;;;18.09;46.91
68859;BME280;55864;49.238;8.092;2023-05-25T09:51:47;100040.69;;;18.14;46.60
68859;BME280;55864;49.238;8.092;2023-05-25T09:53:48;100044.00;;;18.16;46.65
68859;BME280;55864;49.238;8.092;2023-05-25T09:55:48;100037.84;;;18.16;46.50
68859;BME280;55864;49.238;8.092;2023-05-25T09:57:53;100031.84;;;18.22;46.39
68859;BME280;55864;49.238;8.092;2023-05-25T09:59:53;100036.78;;;18.25;46.95
68859;BME280;55864;49.238;8.092;2023-05-25T10:01:53;100033.44;;;18.31;46.27
68859;BME280;55864;49.238;8.092;2023-05-25T10:03:55;100036.91;;;18.31;46.50
68859;BME280;55864;49.238;8.092;2023-05-25T10:05:55;100030.06;;;18.37;46.23
68859;BME280;55864;49.238;8.092;2023-05-25T10:07:56;100030.53;;;18.40;46.64
68859;BME280;55864;49.238;8.092;2023-05-25T10:09:57;100036.00;;;18.47;46.64
68859;BME280;55864;49.238;8.092;2023-05-25T10:12:02;100036.28;;;18.52;45.86
68859;BME280;55864;49.238;8.092;2023-05-25T10:14:05;100037.78;;;18.54;46.46
68859;BME280;55864;49.238;8.092;2023-05-25T10:16:06;100045.84;;;18.61;46.55
68859;BME280;55864;49.238;8.092;2023-05-25T10:18:07;100033.22;;;18.77;45.06
68859;BME280;55864;49.238;8.092;2023-05-25T10:20:08;100034.84;;;19.01;45.21
68859;BME280;55864;49.238;8.092;2023-05-25T10:22:12;100037.88;;;19.13;44.53
68859;BME280;55864;49.238;8.092;2023-05-25T10:24:14;100033.75;;;19.10;44.91
68859;BME280;55864;49.238;8.092;2023-05-25T10:26:18;100036.22;;;19.12;45.45
68859;BME280;55864;49.238;8.092;2023-05-25T10:28:19;100035.41;;;19.11;44.64
68859;BME280;55864;49.238;8.092;2023-05-25T10:30:22;100038.22;;;19.10;44.64
68859;BME280;55864;49.238;8.092;2023-05-25T10:32:23;100027.03;;;19.14;44.98
68859;BME280;55864;49.238;8.092;2023-05-25T10:34:23;100033.84;;;19.17;44.80
68859;BME280;55864;49.238;8.092;2023-05-25T10:36:25;100035.94;;;19.21;45.01
68859;BME280;55864;49.238;8.092;2023-05-25T10:38:26;100040.28;;;19.22;44.04